Tarrant West's Hourly Summary for Monday, July 9, 2018
Hour Temp
(f)
RH
(%)
Solar Rad.
(MJ/m2)
Rainfall
(in)
Wind
(mph)
7/9/2018 12:00 AM 76 76 0 0 4.41
7/9/2018 1:00 AM 75 79 0 0 3.36
7/9/2018 2:00 AM 74 83 0 0 2.93
7/9/2018 3:00 AM 73 88 0 0 3.15
7/9/2018 4:00 AM 73 90 0 0 1.99
7/9/2018 5:00 AM 72 91 0 0 2.75
7/9/2018 6:00 AM 73 92 0.01 0 1.83
7/9/2018 7:00 AM 74 88 0.31 0 2.17
7/9/2018 8:00 AM 78 80 0.91 0 2.46
7/9/2018 9:00 AM 81 71 1.57 0 2.55
7/9/2018 10:00 AM 84 58 2.12 0 3.33
7/9/2018 11:00 AM 86 54 2.69 0 4.89
7/9/2018 12:00 PM 88 48 2.73 0 5.23
7/9/2018 1:00 PM 88 48 2.09 0 6.37
7/9/2018 2:00 PM 88 46 1.07 0 4.5
7/9/2018 3:00 PM 89 44 1.28 0 7.47
7/9/2018 4:00 PM 90 43 1.08 0 6.46
7/9/2018 5:00 PM 86 53 0.47 0 7
7/9/2018 6:00 PM 84 58 0.39 0 9.88
7/9/2018 7:00 PM 78 75 0.1 0 5.46
7/9/2018 8:00 PM 79 73 0.14 0 3.04
7/9/2018 9:00 PM 79 73 0.01 0 4.36
7/9/2018 10:00 PM 78 72 0 0 5.59
7/9/2018 11:00 PM 77 76 0 0 5.68
Data Summary 80 69 16.97 0.00 4.45